Time;durP1;ratioP1;P1;durP2;ratioP2;P2;SDS_P1;SDS_P2;PMS_P1;PMS_P2;Temp;Humidity;BMP_temperature;BMP_pressure;BME280_temperature;BME280_humidity;BME280_pressure;Samples;Min_cycle;Max_cycle;Signal;HPM_P1;HPM_P2
2021/08/13 00:02:07;;;;;;;14.30;8.80;;;;;;;20.39;73.36;101827.84;5032233;28;20475;-59
2021/08/13 00:04:34;;;;;;;12.77;8.82;;;;;;;20.40;73.15;101826.75;5033176;28;20046;-59
2021/08/13 00:07:02;;;;;;;16.02;10.27;;;;;;;20.39;73.07;101827.84;5033353;28;20060;-59
2021/08/13 00:09:30;;;;;;;14.35;10.82;;;;;;;20.32;73.19;101824.69;5033544;28;20042;-58
2021/08/13 00:11:57;;;;;;;16.77;10.48;;;;;;;20.23;73.55;101832.09;5033143;28;20041;-57
2021/08/13 00:14:25;;;;;;;13.98;9.93;;;;;;;20.18;73.92;101834.97;5033350;28;20045;-59
2021/08/13 00:16:52;;;;;;;15.68;10.07;;;;;;;20.15;74.06;101830.03;5046658;28;20052;-57
2021/08/13 00:19:20;;;;;;;17.38;10.20;;;;;;;20.18;73.92;101829.44;5032974;28;20492;-57
2021/08/13 00:21:49;;;;;;;12.57;9.32;;;;;;;20.20;73.77;101836.31;5033367;28;20123;-59
2021/08/13 00:24:17;;;;;;;15.73;10.20;;;;;;;20.19;73.74;101831.88;5032995;28;20025;-60
2021/08/13 00:26:44;;;;;;;17.30;11.38;;;;;;;20.17;73.75;101838.84;5032988;28;20503;-58
2021/08/13 00:29:12;;;;;;;15.57;10.95;;;;;;;20.11;73.89;101842.88;5032671;28;20033;-59
2021/08/13 00:31:39;;;;;;;15.25;10.82;;;;;;;20.08;73.99;101844.28;5032534;28;20049;-57
2021/08/13 00:34:08;;;;;;;15.07;9.10;;;;;;;20.09;74.02;101843.16;5031308;28;20052;-59
2021/08/13 00:36:36;;;;;;;13.90;10.05;;;;;;;20.14;74.01;101840.28;5031327;28;20041;-59
2021/08/13 00:39:04;;;;;;;14.57;10.07;;;;;;;20.15;73.98;101847.47;5032675;28;20072;-59
2021/08/13 00:41:33;;;;;;;16.13;10.70;;;;;;;20.16;73.98;101848.31;5045389;28;20053;-58
2021/08/13 00:44:02;;;;;;;15.95;9.48;;;;;;;20.16;73.72;101851.88;5032415;28;20058;-54
2021/08/13 00:46:29;;;;;;;15.63;10.43;;;;;;;20.19;73.51;101858.75;5032503;28;20060;-55
2021/08/13 00:49:14;;;;;;;20.20;10.43;;;;;;;20.18;73.86;101857.94;5041614;28;20041;-52
2021/08/13 00:51:48;;;;;;;14.68;9.05;;;;;;;20.18;73.88;101862.66;5039616;28;20045;-57
2021/08/13 00:54:15;;;;;;;15.13;9.88;;;;;;;20.20;73.59;101860.38;5031204;28;20045;-58
2021/08/13 00:56:50;;;;;;;14.93;10.68;;;;;;;20.21;73.93;101862.03;5031359;28;20050;-57
2021/08/13 00:59:40;;;;;;;18.60;11.15;;;;;;;20.19;73.88;101867.03;5031408;28;20034;-54
2021/08/13 01:02:15;;;;;;;14.77;9.70;;;;;;;20.17;74.05;101864.56;5030383;28;20060;-53
2021/08/13 01:04:45;;;;;;;17.65;11.07;;;;;;;20.17;74.42;101863.75;5031339;28;20421;-50
2021/08/13 01:07:20;;;;;;;15.30;10.02;;;;;;;20.17;74.41;101874.84;5031181;28;20049;-58
2021/08/13 01:09:48;;;;;;;16.17;10.38;;;;;;;20.16;74.67;101873.22;5031321;28;20052;-60
2021/08/13 01:12:37;;;;;;;18.92;10.35;;;;;;;20.15;74.64;101882.63;5031872;28;20159;-60
2021/08/13 01:15:12;;;;;;;14.98;10.50;;;;;;;20.17;74.45;101877.59;5014185;28;20132;-60
2021/08/13 01:17:54;;;;;;;14.57;10.77;;;;;;;20.18;74.33;101879.25;5020848;28;20045;-59
2021/08/13 01:21:04;;;;;;;17.02;11.00;;;;;;;20.19;74.23;101884.47;5034718;28;20072;-59
2021/08/13 01:23:38;;;;;;;17.92;11.60;;;;;;;20.20;74.43;101876.97;5031197;28;20083;-58
2021/08/13 01:26:08;;;;;;;18.73;12.57;;;;;;;20.19;74.45;101878.13;5030598;28;20051;-58
2021/08/13 01:28:55;;;;;;;18.25;13.15;;;;;;;20.15;74.63;101877.09;5031166;28;20052;-59
2021/08/13 01:31:26;;;;;;;18.77;13.50;;;;;;;20.11;74.82;101887.16;5014407;28;20510;-59
2021/08/13 01:34:02;;;;;;;16.75;12.95;;;;;;;20.08;74.91;101884.97;5031147;28;20492;-55
2021/08/13 01:36:30;;;;;;;19.10;13.32;;;;;;;20.07;75.20;101894.41;5020347;28;20419;-59
2021/08/13 01:39:02;;;;;;;19.30;13.07;;;;;;;20.04;75.64;101886.72;5034884;28;20087;-59
2021/08/13 01:41:38;;;;;;;22.83;16.48;;;;;;;20.03;75.77;101887.84;5045273;28;20034;-57
2021/08/13 01:44:09;;;;;;;25.30;17.85;;;;;;;20.00;75.86;101895.63;5027624;28;20053;-59
2021/08/13 01:46:38;;;;;;;23.63;17.92;;;;;;;19.98;75.96;101897.88;5034126;28;20049;-58
2021/08/13 01:49:06;;;;;;;24.20;17.10;;;;;;;19.98;76.02;101889.56;5022751;28;20041;-57
2021/08/13 01:51:37;;;;;;;19.83;16.33;;;;;;;19.98;75.87;101888.75;5030819;28;20033;-59
2021/08/13 01:54:06;;;;;;;22.40;14.50;;;;;;;19.96;75.99;101877.16;5014825;28;20048;-60
2021/08/13 01:56:36;;;;;;;21.30;15.05;;;;;;;19.94;75.95;101880.25;5031737;28;20065;-56
2021/08/13 01:59:04;;;;;;;20.55;15.10;;;;;;;19.94;76.00;101877.50;5014075;28;20048;-55
2021/08/13 02:01:33;;;;;;;25.60;15.65;;;;;;;19.94;76.03;101880.25;5030049;28;20106;-59
2021/08/13 02:04:02;;;;;;;19.52;12.93;;;;;;;19.96;75.65;101872.47;5042993;28;20045;-58
2021/08/13 02:06:32;;;;;;;19.70;14.02;;;;;;;19.95;75.81;101879.13;5030657;28;20053;-58
2021/08/13 02:09:04;;;;;;;23.88;14.68;;;;;;;19.94;75.80;101876.66;5004840;28;20099;-56
2021/08/13 02:11:38;;;;;;;44.72;16.92;;;;;;;19.93;75.87;101878.59;5036184;28;20034;-58
2021/08/13 02:14:06;;;;;;;18.67;14.05;;;;;;;19.92;75.89;101876.16;5030143;28;20048;-60
2021/08/13 02:16:36;;;;;;;22.23;16.50;;;;;;;19.92;75.93;101871.44;5027582;28;20049;-60
2021/08/13 02:19:13;;;;;;;21.52;17.13;;;;;;;19.87;76.07;101877.06;5033837;28;20044;-59
2021/08/13 02:21:44;;;;;;;22.13;16.45;;;;;;;19.85;76.20;101871.03;5034279;28;20037;-58
2021/08/13 02:24:12;;;;;;;20.83;16.58;;;;;;;19.86;76.32;101875.41;5031219;28;20046;-59
2021/08/13 02:26:40;;;;;;;19.92;16.70;;;;;;;19.85;76.38;101868.25;5034332;28;20484;-59
2021/08/13 02:29:11;;;;;;;22.40;16.83;;;;;;;19.83;76.57;101876.03;5033310;28;20647;-60
2021/08/13 02:31:39;;;;;;;23.75;16.58;;;;;;;19.83;76.34;101873.28;5033835;28;20049;-56
2021/08/13 02:34:07;;;;;;;21.58;15.43;;;;;;;19.84;76.43;101874.09;5034125;28;20128;-60
2021/08/13 02:37:08;;;;;;;20.83;16.15;;;;;;;19.84;76.27;101869.38;5034113;28;20094;-60
2021/08/13 02:39:38;;;;;;;24.73;15.38;;;;;;;19.86;76.25;101863.53;5023766;28;20453;-59
2021/08/13 02:42:07;;;;;;;21.65;16.38;;;;;;;19.85;76.25;101859.97;5053671;28;20099;-58
2021/08/13 02:44:35;;;;;;;19.88;16.33;;;;;;;19.84;76.14;101852.78;5017444;28;20056;-58
2021/08/13 02:47:06;;;;;;;21.75;15.77;;;;;;;19.82;76.37;101855.03;5033866;28;20054;-60
2021/08/13 02:49:36;;;;;;;18.77;14.38;;;;;;;19.83;76.28;101851.16;5017197;28;20045;-58
2021/08/13 02:52:08;;;;;;;20.80;14.88;;;;;;;19.83;76.24;101847.56;5017213;28;20041;-60
2021/08/13 02:54:37;;;;;;;24.70;16.75;;;;;;;19.80;76.30;101846.22;5017427;28;20071;-60
2021/08/13 02:57:06;;;;;;;22.45;16.00;;;;;;;19.77;76.41;101846.81;5017101;28;20140;-57
2021/08/13 02:59:35;;;;;;;22.80;16.40;;;;;;;19.74;76.45;101841.91;5034190;28;20492;-59
2021/08/13 03:02:04;;;;;;;23.67;17.17;;;;;;;19.72;76.42;101844.16;5022300;28;20091;-59
2021/08/13 03:04:37;;;;;;;22.27;15.77;;;;;;;19.67;76.53;101844.22;5053476;28;20045;-59
2021/08/13 03:07:05;;;;;;;25.13;16.83;;;;;;;19.65;76.59;101841.78;5036825;28;20507;-58
2021/08/13 03:09:33;;;;;;;22.45;16.90;;;;;;;19.62;76.85;101839.59;5053393;28;20043;-58
2021/08/13 03:12:01;;;;;;;19.60;15.57;;;;;;;19.59;76.95;101841.03;5036514;28;20522;-60
2021/08/13 03:14:30;;;;;;;21.23;15.55;;;;;;;19.57;77.20;101839.69;5032872;28;20128;-58
2021/08/13 03:16:58;;;;;;;23.10;15.88;;;;;;;19.54;77.17;101843.09;5063660;28;20072;-57
2021/08/13 03:19:25;;;;;;;21.75;15.35;;;;;;;19.52;77.21;101835.09;5033160;28;20045;-57
2021/08/13 03:21:55;;;;;;;20.13;15.88;;;;;;;19.48;77.31;101834.06;5034296;28;20042;-59
2021/08/13 03:24:23;;;;;;;19.02;15.20;;;;;;;19.45;77.44;101839.38;5034407;28;20060;-57
2021/08/13 03:26:52;;;;;;;20.92;15.07;;;;;;;19.43;77.60;101842.44;5032601;28;20111;-58
2021/08/13 03:29:21;;;;;;;24.08;15.65;;;;;;;19.41;77.53;101836.41;5039003;28;20045;-58
2021/08/13 03:31:54;;;;;;;22.70;15.57;;;;;;;19.40;77.71;101833.94;5052620;28;20045;-58
2021/08/13 03:34:23;;;;;;;18.85;14.68;;;;;;;19.37;77.65;101841.69;5033261;28;20049;-57
2021/08/13 03:36:50;;;;;;;25.25;15.90;;;;;;;19.36;77.41;101834.53;5015310;28;20128;-58
2021/08/13 03:39:22;;;;;;;22.40;15.23;;;;;;;19.35;77.54;101840.38;5032386;28;20472;-60
2021/08/13 03:41:50;;;;;;;23.83;16.30;;;;;;;19.34;77.34;101847.03;5032232;28;20045;-59
2021/08/13 03:44:19;;;;;;;24.02;16.77;;;;;;;19.32;77.60;101838.22;5038077;28;20075;-58
2021/08/13 03:46:51;;;;;;;23.52;15.60;;;;;;;19.30;77.65;101838.50;5052474;28;20098;-60
2021/08/13 03:49:19;;;;;;;28.67;16.42;;;;;;;19.30;77.54;101840.47;5052445;28;20045;-60
2021/08/13 03:51:47;;;;;;;21.45;16.45;;;;;;;19.27;77.50;101847.41;5052408;28;20047;-57
2021/08/13 03:54:15;;;;;;;23.83;16.60;;;;;;;19.25;77.47;101835.03;5052330;28;20049;-60
2021/08/13 03:56:43;;;;;;;26.63;16.75;;;;;;;19.23;77.59;101842.78;5052872;28;20048;-59
2021/08/13 03:59:10;;;;;;;22.75;15.38;;;;;;;19.22;77.60;101839.22;5031176;28;20081;-60
2021/08/13 04:01:39;;;;;;;23.20;15.65;;;;;;;19.22;77.59;101835.59;5031897;28;20037;-59
2021/08/13 04:04:07;;;;;;;22.63;16.00;;;;;;;19.23;77.25;101840.84;5045132;28;20033;-59
2021/08/13 04:06:35;;;;;;;23.63;15.93;;;;;;;19.23;77.51;101845.56;5031870;28;20435;-58
2021/08/13 04:09:04;;;;;;;23.52;16.77;;;;;;;19.22;77.43;101850.25;5046260;28;20076;-59
2021/08/13 04:11:32;;;;;;;26.27;17.40;;;;;;;19.20;77.24;101851.69;5043504;28;20083;-59
2021/08/13 04:14:00;;;;;;;23.15;16.20;;;;;;;19.15;77.69;101864.44;5033937;28;20120;-59
2021/08/13 04:16:27;;;;;;;32.47;17.10;;;;;;;19.15;77.70;101864.44;5032178;28;20136;-59
2021/08/13 04:18:57;;;;;;;24.60;16.13;;;;;;;19.14;77.55;101862.78;5015332;28;20049;-59
2021/08/13 04:21:29;;;;;;;25.95;16.70;;;;;;;19.12;77.52;101858.69;5031854;28;20454;-59
2021/08/13 04:23:56;;;;;;;23.25;17.50;;;;;;;19.09;77.80;101864.81;5031770;28;20049;-59
2021/08/13 04:26:25;;;;;;;22.67;15.80;;;;;;;19.05;77.88;101861.00;5031764;28;20456;-59
2021/08/13 04:28:53;;;;;;;25.10;16.50;;;;;;;19.02;78.02;101859.69;5031517;28;20465;-58
2021/08/13 04:31:22;;;;;;;21.58;16.40;;;;;;;18.99;78.28;101851.19;5032826;28;20045;-58
2021/08/13 04:33:49;;;;;;;21.67;15.77;;;;;;;18.99;78.32;101860.28;5032904;28;20046;-60
2021/08/13 04:36:21;;;;;;;25.25;16.77;;;;;;;19.01;78.13;101858.03;5037975;28;20072;-59
2021/08/13 04:38:49;;;;;;;21.90;17.33;;;;;;;19.03;78.19;101857.75;5051444;28;20422;-58
2021/08/13 04:41:17;;;;;;;23.67;18.38;;;;;;;19.04;78.04;101851.91;5050778;28;20060;-56
2021/08/13 04:43:45;;;;;;;22.60;18.98;;;;;;;19.05;77.88;101859.09;5035104;28;20181;-60
2021/08/13 04:46:14;;;;;;;24.55;20.13;;;;;;;19.05;77.78;101859.09;5051032;28;20071;-58
2021/08/13 04:48:44;;;;;;;28.05;22.85;;;;;;;19.05;77.83;101864.63;5040830;28;20037;-54
2021/08/13 04:51:12;;;;;;;27.98;23.02;;;;;;;19.04;77.89;101867.69;5043274;28;20416;-55
2021/08/13 04:53:40;;;;;;;34.28;25.83;;;;;;;19.03;77.81;101866.84;5039575;28;20538;-55
2021/08/13 04:56:08;;;;;;;31.38;24.88;;;;;;;19.03;77.71;101866.84;5048201;28;20119;-52
2021/08/13 04:58:38;;;;;;;30.77;23.23;;;;;;;19.00;77.68;101867.47;5038807;28;20056;-56
2021/08/13 05:01:09;;;;;;;28.27;22.77;;;;;;;18.99;77.53;101871.34;5048983;28;20052;-53
2021/08/13 05:03:37;;;;;;;27.15;21.85;;;;;;;18.98;77.23;101869.69;5050911;28;20491;-57
2021/08/13 05:06:04;;;;;;;27.20;21.75;;;;;;;18.98;77.08;101875.22;5050925;28;20052;-57
2021/08/13 05:08:32;;;;;;;23.50;19.27;;;;;;;18.99;76.74;101873.28;5047620;28;20065;-54
2021/08/13 05:11:00;;;;;;;26.52;19.75;;;;;;;18.98;76.59;101883.50;5030894;28;20550;-56
2021/08/13 05:13:29;;;;;;;24.70;19.40;;;;;;;18.98;76.34;101889.03;5030984;28;20053;-53
2021/08/13 05:15:57;;;;;;;23.67;18.58;;;;;;;18.97;75.97;101890.13;5031089;28;20042;-51
2021/08/13 05:18:25;;;;;;;26.00;19.33;;;;;;;18.98;76.03;101902.84;5030790;28;20099;-56
2021/08/13 05:20:55;;;;;;;25.08;18.35;;;;;;;18.97;76.01;101892.91;5030950;28;20400;-57
2021/08/13 05:23:22;;;;;;;24.10;18.48;;;;;;;18.96;75.61;101905.09;4686182;28;10000710;-55
2021/08/13 05:25:50;;;;;;;23.15;17.70;;;;;;;18.94;75.24;101896.28;5029438;28;20136;-58
2021/08/13 05:28:18;;;;;;;24.42;17.98;;;;;;;18.94;74.98;101902.59;5028597;28;20504;-57
2021/08/13 05:30:46;;;;;;;21.90;17.30;;;;;;;18.94;74.69;101907.31;5028391;28;20045;-59
2021/08/13 05:33:14;;;;;;;23.05;17.65;;;;;;;18.95;74.65;101908.94;5028852;28;20041;-58
2021/08/13 05:35:42;;;;;;;23.85;17.25;;;;;;;18.99;74.61;101910.00;5028252;28;20109;-58
2021/08/13 05:38:10;;;;;;;20.35;14.60;;;;;;;19.03;74.52;101905.53;5028161;28;20045;-59
2021/08/13 05:40:40;;;;;;;20.13;15.23;;;;;;;19.08;74.30;101908.22;5028445;28;20045;-57
2021/08/13 05:43:11;;;;;;;20.27;13.10;;;;;;;19.11;74.28;101910.38;5028407;28;20053;-59
2021/08/13 05:45:40;;;;;;;18.60;12.07;;;;;;;19.14;74.17;101918.06;5028249;28;20077;-56
2021/08/13 05:48:09;;;;;;;19.20;13.23;;;;;;;19.16;73.95;101920.53;5028392;28;20087;-56
2021/08/13 05:50:36;;;;;;;18.63;13.88;;;;;;;19.16;73.58;101912.22;5029601;28;20054;-56
2021/08/13 05:53:05;;;;;;;17.20;12.95;;;;;;;19.16;73.38;101915.81;5027918;28;20518;-59
2021/08/13 05:55:37;;;;;;;18.02;14.05;;;;;;;19.12;73.20;101914.78;5028786;28;20049;-55
2021/08/13 05:58:05;;;;;;;18.80;13.68;;;;;;;19.10;73.19;101916.22;5028335;28;20065;-58
2021/08/13 06:00:33;;;;;;;18.77;12.90;;;;;;;19.07;73.32;101917.63;5030235;28;20144;-57
2021/08/13 06:03:06;;;;;;;17.17;12.48;;;;;;;19.03;72.93;101911.06;5032437;28;20045;-56
2021/08/13 06:05:45;;;;;;;18.27;12.77;;;;;;;19.02;73.27;101920.44;5031909;28;20095;-57
2021/08/13 06:08:18;;;;;;;17.92;12.38;;;;;;;19.04;73.32;101918.22;5031932;28;20049;-57
2021/08/13 06:10:45;;;;;;;16.33;11.65;;;;;;;19.07;73.19;101914.88;5033029;28;20504;-57
2021/08/13 06:13:16;;;;;;;19.63;12.25;;;;;;;19.10;73.03;101918.97;5033092;28;20132;-58
2021/08/13 06:15:45;;;;;;;15.25;11.05;;;;;;;19.11;72.72;101913.13;5034284;28;20488;-59
2021/08/13 06:18:14;;;;;;;16.55;9.45;;;;;;;19.13;73.17;101912.84;5032485;28;20510;-56
2021/08/13 06:20:42;;;;;;;14.82;9.82;;;;;;;19.17;73.05;101916.66;5033555;28;20049;-56
2021/08/13 06:23:20;;;;;;;14.50;9.75;;;;;;;19.21;72.86;101916.88;5033957;28;20045;-57
2021/08/13 06:25:49;;;;;;;14.75;9.40;;;;;;;19.25;72.74;101917.91;5033750;28;20068;-56
2021/08/13 06:28:18;;;;;;;14.45;9.13;;;;;;;19.26;72.66;101925.06;5034040;28;20065;-57
2021/08/13 06:30:47;;;;;;;16.10;10.90;;;;;;;19.30;72.63;101923.38;5033020;28;20054;-56
2021/08/13 06:33:16;;;;;;;12.95;9.70;;;;;;;19.30;72.51;101929.69;5033670;28;20491;-58
2021/08/13 06:35:44;;;;;;;16.65;9.57;;;;;;;19.29;72.41;101930.84;5034154;28;20565;-59
2021/08/13 06:38:12;;;;;;;14.80;9.23;;;;;;;19.27;72.31;101927.53;5034176;28;20045;-58
2021/08/13 06:40:42;;;;;;;13.90;8.90;;;;;;;19.30;72.51;101926.13;5033343;28;20489;-55
2021/08/13 06:43:12;;;;;;;14.63;10.10;;;;;;;19.30;72.24;101921.41;5033345;28;20081;-56
2021/08/13 06:45:45;;;;;;;17.42;11.15;;;;;;;19.21;72.41;101927.91;5033629;28;20041;-56
2021/08/13 06:48:21;;;;;;;13.95;10.25;;;;;;;19.08;72.96;101937.78;5033003;28;20045;-61
2021/08/13 06:50:49;;;;;;;14.40;9.52;;;;;;;19.05;73.31;101930.91;5032747;28;20096;-57
2021/08/13 06:53:17;;;;;;;15.85;11.43;;;;;;;19.03;72.90;101944.19;5033477;28;20111;-60
2021/08/13 06:55:45;;;;;;;14.23;10.13;;;;;;;19.02;73.50;101948.06;5033391;28;20408;-57
2021/08/13 06:58:13;;;;;;;15.85;10.95;;;;;;;19.06;73.28;101943.59;5033066;28;20053;-58
2021/08/13 07:00:42;;;;;;;15.02;10.75;;;;;;;19.08;73.30;101932.25;5032790;28;20068;-58
2021/08/13 07:03:10;;;;;;;12.88;8.77;;;;;;;19.13;73.28;101941.28;5034072;28;20121;-59
2021/08/13 07:05:39;;;;;;;15.68;9.95;;;;;;;19.19;73.04;101932.91;5032904;28;20140;-60
2021/08/13 07:08:11;;;;;;;27.50;13.05;;;;;;;19.18;72.92;101936.81;5033444;28;20037;-59
2021/08/13 07:10:45;;;;;;;16.75;9.52;;;;;;;19.29;72.24;101952.09;5032886;28;20095;-60
2021/08/13 07:13:13;;;;;;;15.02;9.65;;;;;;;19.29;72.54;101957.63;5033047;28;20121;-60
2021/08/13 07:15:42;;;;;;;14.98;9.48;;;;;;;19.29;72.60;101958.47;5036366;28;20446;-59
2021/08/13 07:18:10;;;;;;;15.60;8.30;;;;;;;19.31;72.63;101961.75;5052389;28;20574;-61
2021/08/13 07:20:48;;;;;;;14.90;10.05;;;;;;;19.33;72.51;101966.97;5032768;28;20052;-60
2021/08/13 07:23:16;;;;;;;15.60;9.38;;;;;;;19.31;72.35;101971.97;5028190;28;20127;-59
2021/08/13 07:25:44;;;;;;;18.27;9.75;;;;;;;19.28;72.84;101980.88;5052794;28;20051;-59
2021/08/13 07:28:11;;;;;;;17.08;9.52;;;;;;;19.18;72.99;101981.84;5043423;28;20034;-61
2021/08/13 07:30:43;;;;;;;15.18;9.57;;;;;;;19.11;73.60;101990.50;5032251;28;20041;-59
2021/08/13 07:33:11;;;;;;;14.40;9.80;;;;;;;19.10;73.41;101988.84;5032609;28;20046;-60
2021/08/13 07:35:39;;;;;;;15.65;9.40;;;;;;;19.08;73.39;101987.50;5032222;28;20049;-58
2021/08/13 07:38:08;;;;;;;23.08;10.98;;;;;;;19.14;72.79;101984.34;5032806;28;20044;-60
2021/08/13 07:40:37;;;;;;;15.00;8.35;;;;;;;19.14;73.03;101978.00;5033431;28;20045;-59
2021/08/13 07:43:07;;;;;;;14.23;7.70;;;;;;;19.16;73.00;101976.59;5032582;28;20111;-57
2021/08/13 07:45:36;;;;;;;12.95;7.90;;;;;;;19.20;72.72;101981.53;5032534;28;20450;-59
2021/08/13 07:48:03;;;;;;;15.30;8.75;;;;;;;19.20;72.75;101987.06;5054287;28;20206;-61
2021/08/13 07:50:31;;;;;;;22.55;10.57;;;;;;;19.27;72.31;101987.53;5039499;28;20841;-59
2021/08/13 07:53:00;;;;;;;14.50;8.00;;;;;;;19.27;71.98;101982.00;5032365;28;20060;-56
2021/08/13 07:55:30;;;;;;;13.48;7.78;;;;;;;19.28;72.37;101983.63;5033701;28;20049;-57
2021/08/13 07:57:58;;;;;;;12.85;7.88;;;;;;;19.31;72.63;101996.84;5032249;28;20041;-61
2021/08/13 08:00:26;;;;;;;16.05;8.50;;;;;;;19.37;72.38;101992.91;5033060;28;20794;-61
2021/08/13 08:02:54;;;;;;;12.70;7.60;;;;;;;19.34;72.26;101987.97;5032705;28;20084;-57
2021/08/13 08:05:21;;;;;;;14.48;8.10;;;;;;;19.34;72.41;101987.97;5033292;28;20069;-60
2021/08/13 08:07:49;;;;;;;17.50;7.55;;;;;;;19.35;72.46;101995.94;5033253;28;20072;-61
2021/08/13 08:10:17;;;;;;;10.88;7.25;;;;;;;19.37;72.48;102015.00;5033052;28;20064;-61
2021/08/13 08:12:45;;;;;;;13.75;7.72;;;;;;;19.40;72.42;102039.28;5033344;28;20049;-59
2021/08/13 08:15:12;;;;;;;11.85;7.22;;;;;;;19.44;71.96;102034.81;5032867;28;20091;-60
2021/08/13 08:17:40;;;;;;;14.23;7.35;;;;;;;19.48;71.59;102026.72;5031981;28;20508;-59
2021/08/13 08:20:08;;;;;;;12.85;7.13;;;;;;;19.51;71.10;102015.91;5032866;28;20056;-59
2021/08/13 08:22:36;;;;;;;10.43;6.55;;;;;;;19.55;71.19;102005.91;5032208;28;20107;-55
2021/08/13 08:25:05;;;;;;;13.15;6.47;;;;;;;19.58;71.20;102019.13;5033096;28;20061;-60
2021/08/13 08:27:32;;;;;;;13.73;7.30;;;;;;;19.60;70.47;102013.25;5032639;28;20041;-59
2021/08/13 08:30:00;;;;;;;14.43;6.95;;;;;;;19.57;70.67;102014.69;5032344;28;20057;-58
2021/08/13 08:32:28;;;;;;;12.70;7.00;;;;;;;19.63;70.54;102022.94;5032103;28;20049;-56
2021/08/13 08:34:55;;;;;;;10.55;6.13;;;;;;;19.64;70.23;102030.91;5032686;28;20493;-54
2021/08/13 08:37:23;;;;;;;10.98;6.43;;;;;;;19.66;69.85;102033.38;5032476;28;20453;-57
2021/08/13 08:39:50;;;;;;;12.20;6.47;;;;;;;19.68;69.40;102031.19;5032929;28;20558;-60
2021/08/13 08:42:20;;;;;;;14.10;7.20;;;;;;;19.72;69.29;102037.72;5032878;28;20053;-59
2021/08/13 08:44:48;;;;;;;12.73;6.47;;;;;;;19.76;69.17;102022.19;5032815;28;20045;-60
2021/08/13 08:47:18;;;;;;;13.82;7.38;;;;;;;19.76;69.63;102016.66;5032804;28;20057;-58
2021/08/13 08:49:48;;;;;;;12.52;6.90;;;;;;;19.78;70.08;102017.19;5033331;28;20076;-60
2021/08/13 08:52:17;;;;;;;12.90;7.22;;;;;;;19.81;70.01;102018.53;5032244;28;20057;-58
2021/08/13 08:54:46;;;;;;;11.38;7.05;;;;;;;19.83;70.15;102022.63;5031128;28;20120;-59
2021/08/13 08:57:13;;;;;;;11.65;6.05;;;;;;;19.85;70.17;102019.56;5031264;28;20136;-61
2021/08/13 08:59:42;;;;;;;12.18;7.18;;;;;;;19.84;69.95;102029.78;5030634;28;20125;-60
2021/08/13 09:02:09;;;;;;;13.95;6.88;;;;;;;19.86;70.16;102035.84;5030250;28;20140;-60
2021/08/13 09:04:38;;;;;;;12.30;6.80;;;;;;;19.89;70.40;102039.94;5031995;28;20492;-59
2021/08/13 09:07:07;;;;;;;14.32;7.57;;;;;;;19.95;70.14;102033.22;5032017;28;20128;-58
2021/08/13 09:09:34;;;;;;;17.20;6.82;;;;;;;19.96;70.05;102026.56;5044844;28;20500;-57
2021/08/13 09:12:03;;;;;;;12.82;6.47;;;;;;;20.01;70.15;102032.00;5042696;28;20045;-59
2021/08/13 09:14:39;;;;;;;12.82;7.70;;;;;;;20.09;69.45;102036.84;5042917;28;20044;-58
2021/08/13 09:17:07;;;;;;;21.25;8.48;;;;;;;20.09;69.56;102044.34;5042659;28;20424;-59
2021/08/13 09:19:42;;;;;;;11.63;7.28;;;;;;;20.11;69.76;102042.91;5044284;28;20041;-57
2021/08/13 09:22:15;;;;;;;10.57;6.72;;;;;;;20.16;69.35;102048.34;5043195;28;20037;-59
2021/08/13 09:24:50;;;;;;;11.95;5.43;;;;;;;20.24;69.34;102046.03;5044397;28;20041;-60
2021/08/13 09:27:35;;;;;;;16.52;5.93;;;;;;;20.44;69.31;102048.41;5040520;28;20045;-55
2021/08/13 09:30:17;;;;;;;15.32;6.25;;;;;;;20.52;68.88;102055.22;5050092;28;20110;-58
2021/08/13 09:33:05;;;;;;;11.48;5.20;;;;;;;20.60;67.64;102062.81;5045825;28;20048;-58
2021/08/13 09:35:34;;;;;;;12.20;6.45;;;;;;;20.59;66.36;102061.19;5048748;28;20041;-55
2021/08/13 09:38:03;;;;;;;11.52;6.35;;;;;;;20.61;65.96;102070.00;5046319;28;20037;-58
2021/08/13 09:40:45;;;;;;;11.05;6.50;;;;;;;20.59;64.92;102075.03;5050403;28;20041;-56
2021/08/13 09:43:13;;;;;;;12.10;6.07;;;;;;;20.62;66.05;102072.47;5046290;28;20057;-59
2021/08/13 09:45:43;;;;;;;10.30;5.53;;;;;;;20.64;64.49;102069.41;5047993;28;20045;-59
2021/08/13 09:48:24;;;;;;;11.05;4.82;;;;;;;20.67;66.09;102070.75;5044125;28;20048;-59
2021/08/13 09:50:52;;;;;;;11.95;6.13;;;;;;;20.66;63.76;102082.94;5048592;28;20083;-56
2021/08/13 09:53:20;;;;;;;10.75;5.60;;;;;;;20.70;64.75;102084.78;5045539;28;20124;-60
2021/08/13 09:55:47;;;;;;;11.65;5.90;;;;;;;20.69;62.74;102085.94;5050034;28;20037;-59
2021/08/13 09:58:29;;;;;;;11.02;5.70;;;;;;;20.66;62.99;102072.69;5040579;28;20041;-58
2021/08/13 10:00:57;;;;;;;11.35;6.45;;;;;;;20.69;62.04;102069.31;5049609;28;20136;-62
2021/08/13 10:03:24;;;;;;;11.85;7.03;;;;;;;20.63;61.99;102071.31;5052937;28;20077;-60
2021/08/13 10:06:05;;;;;;;14.00;6.90;;;;;;;20.63;60.37;102067.75;5034609;28;20084;-59
2021/08/13 10:08:44;;;;;;;12.43;6.28;;;;;;;20.62;60.60;102072.47;5034170;28;20107;-58
2021/08/13 10:11:13;;;;;;;9.13;4.22;;;;;;;20.69;62.77;102074.84;5034132;28;20054;-60
2021/08/13 10:13:53;;;;;;;12.38;6.30;;;;;;;20.69;59.04;102072.06;5034934;28;20464;-59
2021/08/13 10:16:25;;;;;;;12.02;6.57;;;;;;;20.68;59.21;102064.88;5033969;28;20050;-59
2021/08/13 10:18:59;;;;;;;13.60;6.20;;;;;;;20.74;59.37;102065.63;5033901;28;20045;-58
2021/08/13 10:21:30;;;;;;;13.15;6.75;;;;;;;20.77;58.17;102063.03;5034926;28;20045;-58
2021/08/13 10:24:01;;;;;;;12.77;6.40;;;;;;;20.76;56.21;102063.38;5033848;28;20080;-58
2021/08/13 10:26:28;;;;;;;11.77;6.47;;;;;;;20.71;56.81;102067.06;5027885;28;20048;-58
2021/08/13 10:28:57;;;;;;;11.23;6.22;;;;;;;20.75;57.35;102065.28;5033316;28;20061;-57
2021/08/13 10:31:25;;;;;;;11.02;6.35;;;;;;;20.71;56.31;102078.13;5052448;28;20427;-59
2021/08/13 10:33:58;;;;;;;12.18;6.43;;;;;;;20.70;56.45;102070.94;5037230;28;20046;-53
2021/08/13 10:36:26;;;;;;;12.25;6.95;;;;;;;20.75;56.04;102068.06;5045169;28;20047;-57
2021/08/13 10:38:54;;;;;;;10.32;5.80;;;;;;;20.76;57.05;102066.13;5045561;28;20895;-59
2021/08/13 10:41:25;;;;;;;14.40;7.47;;;;;;;20.79;55.63;102068.28;5050346;28;20138;-59
2021/08/13 10:43:59;;;;;;;13.83;8.10;;;;;;;20.76;54.67;102083.56;5051745;28;20067;-58
2021/08/13 10:46:33;;;;;;;12.18;6.93;;;;;;;20.77;54.78;102085.19;5034839;28;20045;-59
2021/08/13 10:49:02;;;;;;;12.90;7.75;;;;;;;20.77;55.25;102084.38;5029857;28;20045;-52
2021/08/13 10:51:33;;;;;;;34.22;16.38;;;;;;;20.82;55.38;102076.78;5035423;28;20396;-57
2021/08/13 10:54:14;;;;;;;18.02;9.40;;;;;;;20.83;54.16;102078.44;5035416;28;20496;-55
2021/08/13 10:56:48;;;;;;;16.95;7.72;;;;;;;20.87;54.90;102077.81;5032912;28;20033;-54
2021/08/13 10:59:41;;;;;;;16.25;7.95;;;;;;;20.92;54.79;102086.84;5035138;28;20067;-52
2021/08/13 11:02:17;;;;;;;11.38;7.15;;;;;;;20.96;52.23;102081.53;5032740;28;20136;-55
2021/08/13 11:05:05;;;;;;;13.48;6.72;;;;;;;20.97;53.34;102088.69;5032933;28;20037;-54
2021/08/13 11:07:59;;;;;;;125.43;68.85;;;;;;;21.06;55.95;102084.91;5033138;28;20488;-55
2021/08/13 11:10:38;;;;;;;;;;;;;;;21.10;54.78;102081.53;5033459;28;20048;-56
2021/08/13 11:13:20;;;;;;;28.52;15.40;;;;;;;21.08;53.85;102090.16;5032511;28;19967;-56
2021/08/13 11:15:52;;;;;;;13.00;5.75;;;;;;;21.09;50.22;102089.00;4331457;28;9999822;-56
2021/08/13 11:18:33;;;;;;;10.63;5.32;;;;;;;21.06;50.60;102095.16;5031702;28;20088;-52
2021/08/13 11:21:06;;;;;;;10.63;5.38;;;;;;;21.09;50.43;102094.53;5038854;28;20872;-53
2021/08/13 11:24:05;;;;;;;12.13;5.80;;;;;;;21.16;49.70;102094.94;5039696;28;20069;-54
2021/08/13 11:26:53;;;;;;;12.07;5.55;;;;;;;21.17;50.60;102099.38;5038907;28;20046;-51
2021/08/13 11:29:31;;;;;;;12.20;5.18;;;;;;;21.16;50.72;102097.72;5035335;28;20073;-54